Time;durP1;ratioP1;P1;durP2;ratioP2;P2;SDS_P1;SDS_P2;PMS_P1;PMS_P2;Temp;Humidity;BMP_temperature;BMP_pressure;BME280_temperature;BME280_humidity;BME280_pressure;Samples;Min_cycle;Max_cycle;Signal;HPM_P1;HPM_P2
2023/05/20 04:34:01;;;;;;;;;;;;;;;;;;5294598;22;19925;-89
2023/05/20 04:36:27;;;;;;;;;;;;;;;;;;5008319;28;19924;-89
2023/05/20 04:38:53;;;;;;;;;;;;;;;;;;5019234;28;19913;-89
2023/05/20 04:41:18;;;;;;;;;;;;;;;;;;5017719;28;19916;-87
2023/05/20 04:43:44;;;;;;;;;;;;;;;;;;5022162;28;19913;-87
2023/05/20 04:46:10;;;;;;;;;;;;;;;;;;5019454;28;19920;-89
2023/05/20 04:48:35;;;;;;;;;;;;;;;;;;5037335;28;19979;-87
2023/05/20 04:51:01;;;;;;;;;;;;;;;;;;5019488;28;20279;-88
2023/05/20 04:53:29;;;;;;;;;;;;;;;;;;5022468;28;19913;-88
2023/05/20 04:55:55;;;;;;;;;;;;;;;;;;5017380;28;19914;-88
2023/05/20 04:58:23;;;;;;;;;;;;;;;;;;5017432;28;19917;-88
2023/05/20 05:00:49;;;;;;;;;;;;;;;;;;5004316;28;20379;-88
2023/05/20 05:03:14;;;;;;;;;;;;;;;;;;5037118;28;19920;-88
2023/05/20 05:05:40;;;;;;;;;;;;;;;;;;5019002;28;20279;-88
2023/05/20 05:08:06;;;;;;;;;;;;;;;;;;5030989;28;19913;-89
2023/05/20 05:10:32;;;;;;;;;;;;;;;;;;5036891;28;19936;-88
2023/05/20 05:12:57;;;;;;;;;;;;;;;;;;5020662;28;19913;-88
2023/05/20 05:15:23;;;;;;;;;;;;;;;;;;5000872;28;19913;-88
2023/05/20 05:17:48;;;;;;;;;;;;;;;;;;5036909;28;19913;-89
2023/05/20 05:20:13;;;;;;;;;;;;;;;;;;5036685;28;19913;-88
2023/05/20 05:22:40;;;;;;;;;;;;;;;;;;5036761;28;20425;-88
2023/05/20 05:25:09;;;;;;;;;;;;;;;;;;5008707;28;20272;-88
2023/05/20 05:27:34;;;;;;;;;;;;;;;;;;5036566;28;20364;-88
2023/05/20 05:30:03;;;;;;;;;;;;;;;;;;5018605;28;19920;-89
2023/05/20 05:32:29;;;;;;;;;;;;;;;;;;5018793;28;19913;-88
2023/05/20 05:34:54;;;;;;;;;;;;;;;;;;5036534;28;20286;-88
2023/05/20 05:37:20;;;;;;;;;;;;;;;;;;5036680;28;19916;-89
2023/05/20 05:39:45;;;;;;;;;;;;;;;;;;5036073;28;19913;-89
2023/05/20 05:42:11;;;;;;;;;;;;;;;;;;5025172;28;19920;-89
2023/05/20 05:44:36;;;;;;;;;;;;;;;;;;4998872;28;20347;-89
2023/05/20 05:47:01;;;;;;;;;;;;;;;;;;5016627;28;20368;-89
2023/05/20 05:49:27;;;;;;;;;;;;;;;;;;4998942;28;19910;-89
2023/05/20 05:51:52;;;;;;;;;;;;;;;;;;5016332;28;20394;-89
2023/05/20 05:54:19;;;;;;;;;;;;;;;;;;4998995;28;19909;-88
2023/05/20 05:56:45;;;;;;;;;;;;;;;;;;5016402;28;19952;-89
2023/05/20 05:59:10;;;;;;;;;;;;;;;;;;5016426;28;19968;-88
2023/05/20 06:01:36;;;;;;;;;;;;;;;;;;4998920;28;20000;-87
2023/05/20 06:04:01;;;;;;;;;;;;;;;;;;4998425;28;20012;-87
2023/05/20 06:06:27;;;;;;;;;;;;;;;;;;5016233;28;19943;-87
2023/05/20 06:08:52;;;;;;;;;;;;;;;;;;4998628;28;19914;-88
2023/05/20 06:11:17;;;;;;;;;;;;;;;;;;4999356;28;19913;-88
2023/05/20 06:13:43;;;;;;;;;;;;;;;;;;4998457;28;20008;-89
2023/05/20 06:16:08;;;;;;;;;;;;;;;;;;5016210;28;19956;-89
2023/05/20 06:18:33;;;;;;;;;;;;;;;;;;5016099;28;20379;-87
2023/05/20 06:20:59;;;;;;;;;;;;;;;;;;5015801;28;20353;-88
2023/05/20 06:23:24;;;;;;;;;;;;;;;;;;5016043;28;20320;-85
2023/05/20 06:25:50;;;;;;;;;;;;;;;;;;4998397;28;19913;-86
2023/05/20 06:28:15;;;;;;;;;;;;;;;;;;5015807;28;19967;-85
2023/05/20 06:30:41;;;;;;;;;;;;;;;;;;5016076;28;20421;-86
2023/05/20 06:33:06;;;;;;;;;;;;;;;;;;5015763;28;20338;-85
2023/05/20 06:35:33;;;;;;;;;;;;;;;;;;5015566;28;20360;-86
2023/05/20 06:38:00;;;;;;;;;;;;;;;;;;5015941;28;19950;-88
2023/05/20 06:40:26;;;;;;;2.40;2.20;;;;;;;;;;5015068;28;19913;-86
2023/05/20 06:42:51;;;;;;;2.75;2.13;;;;;;;;;;5015243;28;20542;-89
2023/05/20 06:45:17;;;;;;;2.92;2.63;;;;;;;;;;5014880;28;20037;-86
2023/05/20 06:47:42;;;;;;;4.07;2.20;;;;;;;;;;5014881;28;20026;-85
2023/05/20 06:50:08;;;;;;;3.42;2.58;;;;;;;;;;5014761;28;20046;-86
2023/05/20 06:52:34;;;;;;;2.50;2.30;;;;;;;;;;4996594;28;20117;-86
2023/05/20 06:54:59;;;;;;;2.70;2.50;;;;;;;;;;5015033;28;20026;-86
2023/05/20 06:57:25;;;;;;;2.58;2.38;;;;;;;;;;5015005;28;20033;-85
2023/05/20 06:59:51;;;;;;;2.80;2.50;;;;;;;;;;5014881;28;20050;-87
2023/05/20 07:02:17;;;;;;;3.55;3.00;;;;;;;;;;5014676;28;20033;-87
2023/05/20 07:04:42;;;;;;;4.10;2.80;;;;;;;;;;5014529;28;20029;-86
2023/05/20 07:07:08;;;;;;;3.22;2.92;;;;;;;;;;5014608;28;20026;-87
2023/05/20 07:09:33;;;;;;;2.60;2.40;;;;;;;;;;5014852;28;20021;-84
2023/05/20 07:11:58;;;;;;;2.67;2.47;;;;;;;;;;5014776;28;20022;-85
2023/05/20 07:14:24;;;;;;;2.20;2.10;;;;;;;;;;5015030;28;20029;-85
2023/05/20 07:16:49;;;;;;;3.05;2.70;;;;;;;;;;5014487;28;20013;-88
2023/05/20 07:19:15;;;;;;;2.97;2.30;;;;;;;;;;5014535;28;20018;-85
2023/05/20 07:21:40;;;;;;;2.53;2.33;;;;;;;;;;5014516;28;20033;-87
2023/05/20 07:24:06;;;;;;;2.05;1.95;;;;;;;;;;5014325;28;20037;-85
2023/05/20 07:26:35;;;;;;;2.80;2.60;;;;;;;;;;5014215;28;20076;-86
2023/05/20 07:29:01;;;;;;;2.57;2.37;;;;;;;;;;5014581;28;20024;-89
2023/05/20 07:31:26;;;;;;;2.85;2.40;;;;;;;;;;5014553;28;20359;-86
2023/05/20 07:33:52;;;;;;;3.47;2.20;;;;;;;;;;5014012;28;20133;-86
2023/05/20 07:36:17;;;;;;;3.70;2.15;;;;;;;;;;4996682;28;20488;-87
2023/05/20 07:38:42;;;;;;;3.10;2.33;;;;;;;;;;5014583;28;20083;-87
2023/05/20 07:41:08;;;;;;;3.08;2.40;;;;;;;;;;5014108;28;20102;-87
2023/05/20 07:43:33;;;;;;;2.58;2.38;;;;;;;;;;5014055;28;20065;-86
2023/05/20 07:45:59;;;;;;;6.40;4.03;;;;;;;;;;5014237;28;20026;-88
2023/05/20 07:48:25;;;;;;;4.88;4.13;;;;;;;;;;5014197;28;20037;-86
2023/05/20 07:50:51;;;;;;;11.95;3.47;;;;;;;;;;5014256;28;20508;-86
2023/05/20 07:53:16;;;;;;;3.70;2.70;;;;;;;;;;5014238;28;20108;-86
2023/05/20 07:55:42;;;;;;;2.70;2.15;;;;;;;;;;4996455;28;20064;-86
2023/05/20 07:58:07;;;;;;;4.00;2.78;;;;;;;;;;5013750;28;20026;-87
2023/05/20 08:00:33;;;;;;;3.58;2.53;;;;;;;;;;5013739;28;20026;-85
2023/05/20 08:02:58;;;;;;;2.63;2.42;;;;;;;;;;5014372;28;20030;-84
2023/05/20 08:05:24;;;;;;;5.25;4.15;;;;;;;;;;4999636;28;20091;-85
2023/05/20 08:07:49;;;;;;;6.47;4.68;;;;;;;;;;5018137;28;20469;-84
2023/05/20 08:10:15;;;;;;;3.60;2.70;;;;;;;;;;5017857;28;20033;-84
2023/05/20 08:12:40;;;;;;;2.60;2.40;;;;;;;;;;5017777;28;20112;-84
2023/05/20 08:15:06;;;;;;;3.47;2.97;;;;;;;;;;5000734;28;20033;-84
2023/05/20 08:17:33;;;;;;;3.53;2.92;;;;;;;;;;5018055;28;20032;-83
2023/05/20 08:19:59;;;;;;;2.70;2.50;;;;;;;;;;5032022;28;20030;-85
2023/05/20 08:22:25;;;;;;;3.25;2.72;;;;;;;;;;5037445;28;20148;-83
2023/05/20 08:24:50;;;;;;;2.60;2.40;;;;;;;;;;5037675;28;20030;-85
2023/05/20 08:27:15;;;;;;;2.58;2.38;;;;;;;;;;5037535;28;20393;-85
2023/05/20 10:08:25;;;;;;;4.82;3.03;;;;;;;;;;4979296;28;20373;-86
2023/05/20 10:11:23;;;;;;;3.10;2.80;;;;;;;;;;4998569;28;20393;-90
2023/05/20 10:14:13;;;;;;;3.80;2.55;;;;;;;;;;5016087;28;20026;-84
2023/05/20 10:16:48;;;;;;;4.82;3.05;;;;;;;;;;5016332;28;20029;-85
2023/05/20 10:19:33;;;;;;;3.20;2.90;;;;;;;;;;5017248;28;20034;-81
2023/05/20 10:22:09;;;;;;;6.70;4.97;;;;;;;;;;5015284;28;20104;-80
2023/05/20 10:24:39;;;;;;;3.75;3.45;;;;;;;;;;5016306;28;20022;-79
2023/05/20 10:27:07;;;;;;;;;;;;;;;;;;5015413;28;20109;-80
2023/05/20 10:29:48;;;;;;;3.67;2.90;;;;;;;;;;5015511;28;20007;-81
2023/05/20 10:32:31;;;;;;;2.70;2.50;;;;;;;;;;5015229;28;20052;-81
2023/05/20 10:35:03;;;;;;;2.97;2.58;;;;;;;;;;5014887;28;20022;-82
2023/05/20 10:37:44;;;;;;;2.83;2.60;;;;;;;;;;5015363;28;20480;-81
2023/05/20 10:40:13;;;;;;;3.65;2.88;;;;;;;;;;5015457;28;20026;-83
2023/05/20 10:42:39;;;;;;;2.75;2.55;;;;;;;;;;5015516;28;20073;-84
2023/05/20 10:45:06;;;;;;;3.25;2.95;;;;;;;;;;5014566;28;20473;-84
2023/05/20 10:47:32;;;;;;;3.67;2.67;;;;;;;;;;5015028;28;20025;-85
2023/05/20 10:50:00;;;;;;;3.25;2.95;;;;;;;;;;5015288;28;20018;-83
2023/05/20 10:52:25;;;;;;;4.90;3.08;;;;;;;;;;5015095;28;20058;-84
2023/05/20 10:54:58;;;;;;;3.25;2.72;;;;;;;;;;5014765;28;20053;-84
2023/05/20 10:57:27;;;;;;;3.30;3.00;;;;;;;;;;5015146;28;20424;-83
2023/05/20 10:59:54;;;;;;;3.92;3.50;;;;;;;;;;5014850;28;20028;-89
2023/05/20 11:02:25;;;;;;;5.70;4.13;;;;;;;;;;5015218;28;20026;-88
2023/05/20 11:04:52;;;;;;;5.22;3.72;;;;;;;;;;5015019;28;20040;-85
2023/05/20 11:07:31;;;;;;;3.30;3.00;;;;;;;;;;5015034;28;20108;-80
2023/05/20 11:09:57;;;;;;;3.30;3.00;;;;;;;;;;5014747;28;20504;-81
2023/05/20 11:12:24;;;;;;;3.40;3.10;;;;;;;;;;5014682;28;20087;-82
2023/05/20 11:14:50;;;;;;;3.50;3.20;;;;;;;;;;5014868;28;20033;-81
2023/05/20 11:17:17;;;;;;;4.60;3.50;;;;;;;;;;5014673;28;20025;-81
2023/05/20 11:19:43;;;;;;;;;;;;;;;;;;5014729;28;19920;-82
2023/05/20 11:22:08;;;;;;;;;;;;;;;;;;5014928;28;19917;-82
2023/05/20 11:24:34;;;;;;;5.32;4.65;;;;;;;;;;5014267;28;19913;-83
2023/05/20 11:27:00;;;;;;;4.00;3.40;;;;;;;;;;5014994;28;20026;-84
2023/05/20 11:29:27;;;;;;;5.18;3.10;;;;;;;;;;4996579;28;20387;-82
2023/05/20 11:31:53;;;;;;;4.53;3.10;;;;;;;;;;5014582;28;20106;-86
2023/05/20 11:34:20;;;;;;;4.40;2.97;;;;;;;;;;5014103;28;20105;-83
2023/05/20 11:36:46;;;;;;;3.55;3.25;;;;;;;;;;5014448;28;20026;-86
2023/05/20 11:39:13;;;;;;;3.03;2.75;;;;;;;;;;5013817;28;20092;-82
2023/05/20 11:41:41;;;;;;;3.08;2.35;;;;;;;;;;5014064;28;20357;-84
2023/05/20 11:44:13;;;;;;;;;;;;;;;;;;5014253;28;20022;-83
2023/05/20 11:46:41;;;;;;;;;;;;;;;;;;5014336;28;20032;-82
2023/05/20 11:49:07;;;;;;;;;;;;;;;;;;4996963;28;19920;-84
2023/05/20 11:51:33;;;;;;;;;;;;;;;;;;4996755;28;19921;-83
2023/05/20 11:53:59;;;;;;;;;;;;;;;;;;4996912;28;20264;-83
2023/05/20 11:56:27;;;;;;;;;;;;;;;;;;5014354;28;20029;-82
2023/05/20 11:58:52;;;;;;;;;;;;;;;;;;5014265;28;19936;-82
2023/05/20 12:01:17;;;;;;;;;;;;;;;;;;5014350;28;19959;-83
2023/05/20 12:03:43;;;;;;;;;;;;;;;;;;5014491;28;19953;-84
2023/05/20 12:06:10;;;;;;;;;;;;;;;;;;5014223;28;20322;-84
2023/05/20 12:08:35;;;;;;;;;;;;;;;;;;4996656;28;19929;-82
2023/05/20 12:11:01;;;;;;;;;;;;;;;;;;5014339;28;19914;-82
2023/05/20 12:13:26;;;;;;;;;;;;;;;;;;5014463;28;19909;-88
2023/05/20 12:15:51;;;;;;;;;;;;;;;;;;4996900;28;20344;-83
2023/05/20 12:18:17;;;;;;;;;;;;;;;;;;5014430;28;19916;-87
2023/05/20 12:20:42;;;;;;;;;;;;;;;;;;5014447;28;20016;-84
2023/05/20 12:23:07;;;;;;;;;;;;;;;;;;5014060;28;19956;-85
2023/05/20 12:25:33;;;;;;;;;;;;;;;;;;5014169;28;19913;-89
2023/05/20 12:28:00;;;;;;;;;;;;;;;;;;5013995;28;19920;-88
2023/05/20 12:30:26;;;;;;;;;;;;;;;;;;5014273;28;20331;-87
2023/05/20 12:32:51;;;;;;;;;;;;;;;;;;5014008;28;19952;-87
2023/05/20 12:35:18;;;;;;;;;;;;;;;;;;5013980;28;19920;-82
2023/05/20 12:37:44;;;;;;;;;;;;;;;;;;5014033;28;19936;-85
2023/05/20 12:40:11;;;;;;;;;;;;;;;;;;5014272;28;19913;-81
2023/05/20 12:42:37;;;;;;;;;;;;;;;;;;5013805;28;19921;-82
2023/05/20 12:45:03;;;;;;;;;;;;;;;;;;5013980;28;19925;-81
2023/05/20 12:47:29;;;;;;;;;;;;;;;;;;5013839;28;19913;-82
2023/05/20 12:49:54;;;;;;;;;;;;;;;;;;5013966;28;19916;-82
2023/05/20 12:52:20;;;;;;;;;;;;;;;;;;5017453;28;19913;-82
2023/05/20 12:54:45;;;;;;;;;;;;;;;;;;5017343;28;19921;-83
2023/05/20 12:57:10;;;;;;;;;;;;;;;;;;5017601;28;19909;-82
2023/05/20 12:59:36;;;;;;;;;;;;;;;;;;5017228;28;20360;-82
2023/05/20 13:02:01;;;;;;;;;;;;;;;;;;5017276;28;19916;-82
2023/05/20 13:04:26;;;;;;;;;;;;;;;;;;5017486;28;19968;-81
2023/05/20 13:06:52;;;;;;;;;;;;;;;;;;5017602;28;19921;-82
2023/05/20 13:09:17;;;;;;;;;;;;;;;;;;4999490;28;19917;-84
2023/05/20 13:11:42;;;;;;;;;;;;;;;;;;5021579;28;19920;-84
2023/05/20 13:14:08;;;;;;;;;;;;;;;;;;5027380;28;19913;-85
2023/05/20 13:16:33;;;;;;;;;;;;;;;;;;5023663;28;19917;-82
2023/05/20 13:18:58;;;;;;;;;;;;;;;;;;4999455;28;19913;-82
2023/05/20 13:21:24;;;;;;;;;;;;;;;;;;5017474;28;19909;-83
2023/05/20 13:23:49;;;;;;;;;;;;;;;;;;5037957;28;19994;-84
2023/05/20 13:26:14;;;;;;;;;;;;;;;;;;5022957;28;20113;-85
2023/05/20 13:28:40;;;;;;;;;;;;;;;;;;5032683;28;19913;-90
2023/05/20 13:31:06;;;;;;;;;;;;;;;;;;5019525;28;19917;-90
2023/05/20 13:33:32;;;;;;;;;;;;;;;;;;5016249;28;19920;-85
2023/05/20 13:35:57;;;;;;;;;;;;;;;;;;5016585;28;20328;-85
2023/05/20 13:38:22;;;;;;;;;;;;;;;;;;5031893;28;19913;-86
2023/05/20 13:40:48;;;;;;;;;;;;;;;;;;5036586;28;19912;-86
2023/05/20 13:43:13;;;;;;;;;;;;;;;;;;5036620;28;19920;-88
2023/05/20 13:45:39;;;;;;;;;;;;;;;;;;5036148;28;19913;-86
2023/05/20 13:48:04;;;;;;;;;;;;;;;;;;5036881;28;19913;-86
2023/05/20 13:50:30;;;;;;;;;;;;;;;;;;5036242;28;20352;-86
2023/05/20 13:52:55;;;;;;;;;;;;;;;;;;5036317;28;20006;-86
2023/05/20 13:55:20;;;;;;;;;;;;;;;;;;5036461;28;19920;-86
2023/05/20 13:57:46;;;;;;;;;;;;;;;;;;5036027;28;19913;-87
2023/05/20 14:00:12;;;;;;;;;;;;;;;;;;5036093;28;19979;-86
2023/05/20 14:02:37;;;;;;;;;;;;;;;;;;5018135;28;20011;-87
2023/05/20 14:05:03;;;;;;;;;;;;;;;;;;5036109;28;20004;-88
2023/05/20 14:07:28;;;;;;;;;;;;;;;;;;5018151;28;19919;-86
2023/05/20 14:09:54;;;;;;;;;;;;;;;;;;5029393;28;19949;-87
2023/05/20 14:12:21;;;;;;;;;;;;;;;;;;5016653;28;19940;-86
2023/05/20 14:14:47;;;;;;;;;;;;;;;;;;5016192;28;19913;-86
2023/05/20 14:17:12;;;;;;;;;;;;;;;;;;4998610;28;19913;-86
2023/05/20 14:19:37;;;;;;;;;;;;;;;;;;4998376;28;19925;-87
2023/05/20 14:22:03;;;;;;;;;;;;;;;;;;4997969;28;19917;-85
2023/05/20 14:24:28;;;;;;;;;;;;;;;;;;4998547;28;19918;-87
2023/05/20 14:26:53;;;;;;;;;;;;;;;;;;5016316;28;19929;-86
2023/05/20 14:29:20;;;;;;;;;;;;;;;;;;5016201;28;19919;-86
2023/05/20 16:32:02;;;;;;;;;;;;;;;;;;5017088;28;19965;-85
2023/05/20 16:34:28;;;;;;;;;;;;;;;;;;5030156;28;19924;-87
2023/05/20 16:36:53;;;;;;;;;;;;;;;;;;5004501;28;19920;-85
2023/05/20 16:39:18;;;;;;;;;;;;;;;;;;4997938;28;19920;-85
2023/05/20 16:41:43;;;;;;;;;;;;;;;;;;5015835;28;21135;-86
2023/05/20 16:44:09;;;;;;;;;;;;;;;;;;5018137;28;19920;-85
2023/05/20 16:46:35;;;;;;;;;;;;;;;;;;5017554;28;19917;-85
2023/05/20 16:49:00;;;;;;;;;;;;;;;;;;5009776;28;19918;-84
2023/05/20 16:51:25;;;;;;;;;;;;;;;;;;4998113;28;20292;-84
2023/05/20 16:53:51;;;;;;;;;;;;;;;;;;4997951;28;19917;-84
2023/05/20 16:56:16;;;;;;;;;;;;;;;;;;4997998;28;19949;-84
2023/05/20 16:58:41;;;;;;;;;;;;;;;;;;4997602;28;20402;-85
2023/05/20 17:01:07;;;;;;;;;;;;;;;;;;4999004;28;19920;-86
2023/05/20 17:03:33;;;;;;;;;;;;;;;;;;4997532;28;19913;-85
2023/05/20 17:05:58;;;;;;;;;;;;;;;;;;5004452;28;19959;-85
2023/05/20 17:08:24;;;;;;;;;;;;;;;;;;5016906;28;20311;-86
2023/05/20 17:10:49;;;;;;;;;;;;;;;;;;5016806;28;20443;-86
2023/05/20 17:13:15;;;;;;;;;;;;;;;;;;5017327;28;19913;-86
2023/05/20 17:15:40;;;;;;;;;;;;;;;;;;5016948;28;19953;-86
2023/05/20 17:18:05;;;;;;;;;;;;;;;;;;5017221;28;19959;-84
2023/05/20 17:20:31;;;;;;;;;;;;;;;;;;5017002;28;19921;-84
2023/05/20 17:22:56;;;;;;;;;;;;;;;;;;5016801;28;19913;-85
2023/05/20 17:25:22;;;;;;;;;;;;;;;;;;5016687;28;19917;-85
2023/05/20 17:27:47;;;;;;;;;;;;;;;;;;5016719;28;19921;-86
2023/05/20 17:30:12;;;;;;;;;;;;;;;;;;5016850;28;19919;-85
2023/05/20 17:32:38;;;;;;;;;;;;;;;;;;5016331;28;19921;-84
2023/05/20 17:35:04;;;;;;;;;;;;;;;;;;5015117;28;19979;-84
2023/05/20 17:37:30;;;;;;;;;;;;;;;;;;5015916;28;19920;-84
2023/05/20 17:39:55;;;;;;;;;;;;;;;;;;5010874;28;19913;-84
2023/05/20 17:42:20;;;;;;;;;;;;;;;;;;4997431;28;19942;-84
2023/05/20 17:44:46;;;;;;;;;;;;;;;;;;5017275;28;20000;-84
2023/05/20 17:47:11;;;;;;;;;;;;;;;;;;5016504;28;20261;-85
2023/05/20 17:49:36;;;;;;;;;;;;;;;;;;5016353;28;20390;-85
2023/05/20 17:52:02;;;;;;;;;;;;;;;;;;5016409;28;19914;-86
2023/05/20 17:54:27;;;;;;;;;;;;;;;;;;5016286;28;19980;-85
2023/05/20 17:56:52;;;;;;;;;;;;;;;;;;5016221;28;20008;-84
2023/05/20 17:59:18;;;;;;;;;;;;;;;;;;5016465;28;19919;-85
2023/05/20 18:01:43;;;;;;;;;;;;;;;;;;5016263;28;20323;-85
2023/05/20 18:04:09;;;;;;;;;;;;;;;;;;5013910;28;19940;-85
2023/05/20 18:06:35;;;;;;;;;;;;;;;;;;4994261;28;19968;-88
2023/05/20 18:09:00;;;;;;;;;;;;;;;;;;4978208;28;19918;-86
2023/05/20 18:11:26;;;;;;;;;;;;;;;;;;4996488;28;19917;-86
2023/05/20 18:13:52;;;;;;;;;;;;;;;;;;4996677;28;19914;-86
2023/05/20 18:16:17;;;;;;;;;;;;;;;;;;4996212;28;20297;-85
2023/05/20 18:18:43;;;;;;;;;;;;;;;;;;4996374;28;19948;-86
2023/05/20 18:21:08;;;;;;;;;;;;;;;;;;4996172;28;19921;-85
2023/05/20 18:23:34;;;;;;;;;;;;;;;;;;4996242;28;19914;-87
2023/05/20 18:25:59;;;;;;;;;;;;;;;;;;4996363;28;20288;-86
2023/05/20 18:28:25;;;;;;;;;;;;;;;;;;4996171;28;20280;-86
2023/05/20 18:30:50;;;;;;;;;;;;;;;;;;4996024;28;19922;-89
2023/05/20 18:33:15;;;;;;;;;;;;;;;;;;4995935;28;20403;-87
2023/05/20 18:35:41;;;;;;;;;;;;;;;;;;4996053;28;19964;-86
2023/05/20 18:38:06;;;;;;;;;;;;;;;;;;4995735;28;19968;-86
2023/05/20 18:40:31;;;;;;;;;;;;;;;;;;5006172;28;19917;-87
2023/05/20 18:42:57;;;;;;;;;;;;;;;;;;5015336;28;20352;-85
2023/05/20 18:45:23;;;;;;;;;;;;;;;;;;5015638;28;19914;-86
2023/05/20 18:47:50;;;;;;;;;;;;;;;;;;5015474;28;19957;-86
2023/05/20 18:50:16;;;;;;;;;;;;;;;;;;5015371;28;19993;-86
2023/05/20 18:52:41;;;;;;;;;;;;;;;;;;5015151;28;20291;-85
2023/05/20 18:55:06;;;;;;;;;;;;;;;;;;5014994;28;19917;-85
2023/05/20 18:57:32;;;;;;;;;;;;;;;;;;5015022;28;19913;-85
2023/05/20 18:59:57;;;;;;;;;;;;;;;;;;5015004;28;19921;-85
2023/05/20 19:02:22;;;;;;;;;;;;;;;;;;5013858;28;20267;-85
2023/05/20 19:04:48;;;;;;;;;;;;;;;;;;5014759;28;19913;-86
2023/05/20 19:07:13;;;;;;;;;;;;;;;;;;5013399;28;19968;-86
2023/05/20 19:09:38;;;;;;;;;;;;;;;;;;5014638;28;19939;-88
2023/05/20 19:12:04;;;;;;;;;;;;;;;;;;5014654;28;19949;-88
2023/05/20 19:14:30;;;;;;;;;;;;;;;;;;5014775;28;20007;-85
2023/05/20 19:16:57;;;;;;;;;;;;;;;;;;5012396;28;20368;-85
2023/05/20 19:19:22;;;;;;;;;;;;;;;;;;4995348;28;19925;-85
2023/05/20 19:21:47;;;;;;;;;;;;;;;;;;4995532;28;20384;-85
2023/05/20 19:24:13;;;;;;;;;;;;;;;;;;4977267;28;20368;-83
2023/05/20 19:26:38;;;;;;;;;;;;;;;;;;4995159;28;19969;-87
